createdAt,value
2019-02-24T00:01:17.813Z,57.40
2019-02-24T00:03:19.780Z,52.40
2019-02-24T00:05:21.424Z,52.20
2019-02-24T00:07:23.080Z,52.00
2019-02-24T00:09:24.733Z,49.50
2019-02-24T00:11:26.389Z,51.40
2019-02-24T00:13:28.041Z,50.20
2019-02-24T00:15:29.676Z,49.60
2019-02-24T00:17:31.328Z,49.20
2019-02-24T00:19:32.973Z,52.40
2019-02-24T00:21:34.980Z,53.50
2019-02-24T00:23:36.888Z,54.50
2019-02-24T00:25:38.828Z,53.50
2019-02-24T00:27:40.513Z,51.60
2019-02-24T00:29:42.180Z,56.00
2019-02-24T00:31:43.844Z,57.30
2019-02-24T00:33:45.493Z,59.30
2019-02-24T00:35:47.152Z,59.60
2019-02-24T00:37:49.106Z,60.30
2019-02-24T00:39:50.753Z,59.60
2019-02-24T00:41:52.724Z,58.50
2019-02-24T00:43:54.376Z,58.40
2019-02-24T00:45:56.327Z,56.60
2019-02-24T00:47:57.989Z,55.40
2019-02-24T00:49:59.641Z,53.30
2019-02-24T00:52:01.304Z,52.30
2019-02-24T00:54:02.953Z,50.80
2019-02-24T00:56:04.606Z,48.90
2019-02-24T00:58:06.289Z,46.90
2019-02-24T01:00:08.633Z,44.00
2019-02-24T01:02:10.315Z,44.00
2019-02-24T01:04:11.974Z,44.00
2019-02-24T01:06:13.675Z,43.60
2019-02-24T01:08:15.327Z,42.70
2019-02-24T01:10:16.997Z,42.60
2019-02-24T01:12:18.648Z,43.30
2019-02-24T01:14:20.305Z,42.50
2019-02-24T01:16:21.950Z,40.80
2019-02-24T01:18:23.612Z,42.10
2019-02-24T01:20:25.301Z,41.70
2019-02-24T01:22:26.985Z,41.40
2019-02-24T01:24:28.624Z,41.90
2019-02-24T01:26:30.293Z,42.40
2019-02-24T01:28:31.954Z,42.50
2019-02-24T01:30:33.624Z,40.60
2019-02-24T01:32:35.337Z,41.40
2019-02-24T01:34:36.980Z,42.20
2019-02-24T01:36:38.937Z,42.50
2019-02-24T01:38:40.592Z,44.70
2019-02-24T01:40:42.250Z,44.90
2019-02-24T01:42:43.908Z,46.30
2019-02-24T01:44:45.553Z,47.70
2019-02-24T01:46:47.520Z,50.50
2019-02-24T01:48:49.192Z,51.90
2019-02-24T01:50:50.844Z,51.30
2019-02-24T01:52:52.565Z,54.50
2019-02-24T01:54:54.220Z,54.20
2019-02-24T01:56:55.868Z,55.10
2019-02-24T01:58:57.867Z,56.70
2019-02-24T02:00:59.536Z,56.80
2019-02-24T02:03:01.200Z,56.60
2019-02-24T02:05:03.141Z,59.90
2019-02-24T02:07:04.812Z,60.30
2019-02-24T02:09:06.769Z,59.80
2019-02-24T02:11:08.693Z,59.40
2019-02-24T02:13:10.357Z,60.40
2019-02-24T02:15:12.913Z,60.50
2019-02-24T02:17:15.086Z,62.70
2019-02-24T02:19:16.768Z,65.00
2019-02-24T02:21:18.688Z,63.50
2019-02-24T02:23:20.353Z,63.40
2019-02-24T02:25:22.316Z,66.60
2019-02-24T02:27:24.276Z,70.00
2019-02-24T02:29:25.930Z,73.00
2019-02-24T02:31:27.599Z,71.50
2019-02-24T02:33:29.548Z,71.80
2019-02-24T02:35:31.202Z,71.80
2019-02-24T02:37:32.848Z,74.10
2019-02-24T02:39:34.645Z,73.80
2019-02-24T02:41:38.718Z,72.30
2019-02-24T02:43:40.148Z,71.90
2019-02-24T02:45:41.822Z,71.50
2019-02-24T02:47:43.486Z,71.40
2019-02-24T02:49:45.165Z,71.90
2019-02-24T02:51:46.901Z,73.20
2019-02-24T02:53:49.109Z,73.30
2019-02-24T02:55:51.081Z,72.10
2019-02-24T02:57:52.742Z,74.60
2019-02-24T02:59:54.438Z,72.90
2019-02-24T03:01:56.094Z,72.50
2019-02-24T03:03:58.089Z,74.20
2019-02-24T03:06:13.765Z,73.30
2019-02-24T03:08:15.728Z,73.30
2019-02-24T03:10:17.681Z,75.70
2019-02-24T03:12:19.330Z,75.10
2019-02-24T03:14:20.976Z,73.30
2019-02-24T03:16:25.700Z,74.50
2019-02-24T03:18:27.344Z,75.60
2019-02-24T03:20:28.992Z,75.80
2019-02-24T03:22:30.653Z,75.00
2019-02-24T03:24:32.300Z,74.70
2019-02-24T03:26:34.221Z,75.80
2019-02-24T03:28:35.912Z,75.90
2019-02-24T03:30:37.805Z,77.40
2019-02-24T03:32:39.605Z,76.80
2019-02-24T03:34:41.341Z,75.90
2019-02-24T03:36:42.975Z,75.90
2019-02-24T03:38:44.652Z,73.80
2019-02-24T03:40:46.321Z,73.10
2019-02-24T03:42:47.981Z,72.50
2019-02-24T03:44:49.621Z,72.20
2019-02-24T03:46:51.574Z,72.60
2019-02-24T03:48:53.235Z,73.30
2019-02-24T03:50:54.898Z,73.50
2019-02-24T03:52:56.888Z,72.50
2019-02-24T03:54:58.817Z,73.20
2019-02-24T03:57:00.472Z,72.80
2019-02-24T03:59:02.443Z,71.00
2019-02-24T04:01:04.118Z,72.40
2019-02-24T04:03:05.773Z,73.50
2019-02-24T04:05:07.421Z,75.60
2019-02-24T04:07:09.085Z,75.80
2019-02-24T04:09:11.012Z,75.00
2019-02-24T04:11:12.701Z,74.60
2019-02-24T04:13:14.341Z,73.40
2019-02-24T04:15:16.000Z,75.60
2019-02-24T04:17:17.669Z,76.60
2019-02-24T04:19:19.345Z,76.80
2019-02-24T04:21:21.494Z,79.50
2019-02-24T04:23:23.169Z,77.30
2019-02-24T04:25:24.825Z,73.50
2019-02-24T04:27:26.516Z,74.00
2019-02-24T04:29:28.172Z,77.40
2019-02-24T04:31:29.844Z,78.00
2019-02-24T04:33:31.499Z,78.60
2019-02-24T04:35:33.161Z,80.10
2019-02-24T04:37:34.834Z,79.40
2019-02-24T04:39:36.493Z,78.30
2019-02-24T04:41:38.161Z,80.50
2019-02-24T04:43:39.831Z,80.30
2019-02-24T04:45:41.482Z,79.90
2019-02-24T04:47:43.166Z,82.00
2019-02-24T04:49:44.836Z,81.70
2019-02-24T04:51:46.527Z,80.00
2019-02-24T04:53:48.200Z,73.50
2019-02-24T04:55:50.530Z,72.40
2019-02-24T04:57:52.203Z,80.40
2019-02-24T04:59:53.857Z,82.10
2019-02-24T05:01:55.523Z,83.30
2019-02-24T05:03:57.196Z,83.90
2019-02-24T05:05:58.857Z,84.20
2019-02-24T05:08:00.869Z,84.30
2019-02-24T05:10:02.841Z,84.30
2019-02-24T05:12:04.504Z,85.20
2019-02-24T05:14:06.143Z,86.30
2019-02-24T05:16:07.796Z,85.50
2019-02-24T05:18:09.478Z,80.20
2019-02-24T05:20:11.156Z,82.20
2019-02-24T05:22:12.829Z,83.80
2019-02-24T05:24:14.480Z,82.70
2019-02-24T05:26:16.145Z,82.90
2019-02-24T05:28:17.816Z,83.10
2019-02-24T05:30:19.737Z,82.00
2019-02-24T05:32:21.445Z,81.30
2019-02-24T05:34:23.205Z,83.80
2019-02-24T05:36:24.858Z,82.60
2019-02-24T05:38:26.528Z,81.40
2019-02-24T05:40:28.185Z,79.20
2019-02-24T05:42:29.881Z,78.60
2019-02-24T05:44:31.557Z,80.60
2019-02-24T05:46:33.212Z,80.40
2019-02-24T05:48:35.228Z,84.10
2019-02-24T05:50:36.897Z,84.90
2019-02-24T05:52:38.548Z,84.10
2019-02-24T05:54:40.481Z,84.90
2019-02-24T05:56:42.137Z,81.50
2019-02-24T05:58:43.795Z,84.70
2019-02-24T06:00:45.472Z,85.50
2019-02-24T06:02:47.151Z,88.30
2019-02-24T06:04:49.101Z,90.20
2019-02-24T06:06:50.757Z,90.30
2019-02-24T06:08:52.428Z,90.80
2019-02-24T06:10:54.365Z,92.10
2019-02-24T06:12:56.023Z,91.50
2019-02-24T06:14:57.684Z,91.30
2019-02-24T06:16:59.343Z,91.30
2019-02-24T06:19:01.037Z,92.10
2019-02-24T06:21:02.785Z,92.70
2019-02-24T06:23:04.448Z,91.80
2019-02-24T06:25:06.381Z,91.70
2019-02-24T06:27:08.048Z,90.70
2019-02-24T06:29:09.704Z,90.30
2019-02-24T06:31:11.357Z,91.70
2019-02-24T06:33:13.025Z,92.30
2019-02-24T06:35:14.672Z,92.10
2019-02-24T06:37:16.357Z,91.40
2019-02-24T06:39:18.020Z,90.80
2019-02-24T06:41:19.688Z,91.40
2019-02-24T06:43:21.356Z,91.60
2019-02-24T06:45:23.021Z,91.30
2019-02-24T06:47:24.668Z,90.00
2019-02-24T06:49:26.560Z,90.40
2019-02-24T06:51:28.246Z,88.30
2019-02-24T06:53:29.896Z,86.00
2019-02-24T06:55:31.606Z,81.90
2019-02-24T06:57:33.292Z,81.60
2019-02-24T06:59:34.952Z,79.70
2019-02-24T07:01:36.986Z,75.50
2019-02-24T07:03:38.712Z,75.20
2019-02-24T07:05:40.377Z,69.20
2019-02-24T07:07:42.044Z,66.00
2019-02-24T07:09:43.709Z,62.20
2019-02-24T07:11:45.413Z,61.00
2019-02-24T07:13:47.121Z,60.20
2019-02-24T07:15:48.851Z,59.00
2019-02-24T07:17:50.917Z,60.30
2019-02-24T07:19:52.627Z,59.70
2019-02-24T07:21:54.753Z,54.90
2019-02-24T07:23:56.436Z,50.10
2019-02-24T07:25:58.093Z,43.20
2019-02-24T07:27:59.772Z,34.80
2019-02-24T07:30:01.453Z,32.70
2019-02-24T07:32:03.096Z,31.50
2019-02-24T07:34:04.777Z,30.20
2019-02-24T07:36:06.426Z,21.50
2019-02-24T07:38:08.401Z,25.40
2019-02-24T07:40:10.084Z,21.30
2019-02-24T07:42:11.769Z,21.20
2019-02-24T07:44:13.481Z,20.30
2019-02-24T07:46:15.133Z,18.80
2019-02-24T07:48:17.069Z,15.90
2019-02-24T07:50:18.833Z,13.50
2019-02-24T07:52:20.524Z,15.50
2019-02-24T07:54:25.303Z,16.00
2019-02-24T07:56:27.043Z,14.20
2019-02-24T07:58:29.372Z,12.20
2019-02-24T08:00:32.494Z,10.30
2019-02-24T08:02:34.473Z,6.10
2019-02-24T08:04:36.605Z,8.40
2019-02-24T08:06:38.268Z,3.80
2019-02-24T08:08:40.216Z,3.10
2019-02-24T08:10:42.177Z,3.70
2019-02-24T08:12:43.820Z,2.10
2019-02-24T08:14:45.478Z,1.00
2019-02-24T08:16:48.450Z,1.00
2019-02-24T08:18:51.990Z,1.00
2019-02-24T08:20:53.979Z,1.00
2019-02-24T08:22:55.992Z,1.00
2019-02-24T08:24:57.727Z,1.00
2019-02-24T08:26:59.368Z,1.00
2019-02-24T08:29:01.017Z,1.00
2019-02-24T08:31:02.664Z,1.00
2019-02-24T08:33:04.308Z,1.00
2019-02-24T08:35:05.988Z,1.00
2019-02-24T08:37:07.628Z,1.00
2019-02-24T08:39:09.285Z,1.00
2019-02-24T08:41:10.949Z,1.00
2019-02-24T08:43:12.595Z,1.00
2019-02-24T08:45:14.244Z,1.00
2019-02-24T08:47:15.893Z,1.00
2019-02-24T08:49:17.562Z,1.00
2019-02-24T08:51:19.549Z,1.00
2019-02-24T08:53:21.208Z,1.00
2019-02-24T08:55:22.876Z,2.70
2019-02-24T08:57:24.514Z,6.70
2019-02-24T08:59:26.179Z,8.40
2019-02-24T09:01:28.100Z,7.40
2019-02-24T09:03:29.746Z,9.80
2019-02-24T09:05:31.469Z,13.10
2019-02-24T09:07:33.121Z,10.50
2019-02-24T09:09:34.799Z,12.70
2019-02-24T09:11:36.683Z,14.30
2019-02-24T09:13:38.329Z,13.50
2019-02-24T09:15:39.984Z,12.40
2019-02-24T09:17:41.636Z,12.20
2019-02-24T09:19:43.309Z,10.80
2019-02-24T09:21:44.952Z,5.30
2019-02-24T09:23:46.626Z,9.30
2019-02-24T09:25:48.273Z,11.30
2019-02-24T09:27:49.930Z,9.60
2019-02-24T09:29:51.718Z,1.60
2019-02-24T09:31:53.385Z,1.80
2019-02-24T09:33:55.024Z,1.00
2019-02-24T09:35:56.720Z,1.00
2019-02-24T09:37:58.376Z,1.00
2019-02-24T09:40:00.436Z,1.00
2019-02-24T09:42:02.085Z,1.00
2019-02-24T09:44:03.741Z,1.00
2019-02-24T09:46:05.403Z,1.00
2019-02-24T09:48:07.217Z,1.00
2019-02-24T09:50:08.901Z,1.00
2019-02-24T09:52:10.549Z,1.00
2019-02-24T09:54:12.730Z,1.00
2019-02-24T09:56:14.445Z,1.00
2019-02-24T09:58:16.098Z,1.00
2019-02-24T10:00:17.744Z,1.00
2019-02-24T10:02:19.709Z,1.00
2019-02-24T10:04:21.357Z,1.00
2019-02-24T10:06:23.304Z,1.00
2019-02-24T10:08:25.068Z,1.00
2019-02-24T10:10:26.980Z,1.00
2019-02-24T10:12:28.628Z,1.00
2019-02-24T10:14:30.264Z,1.00
2019-02-24T10:16:31.921Z,1.00
2019-02-24T10:18:33.590Z,1.00
2019-02-24T10:20:35.237Z,1.00
2019-02-24T10:22:36.880Z,1.00
2019-02-24T10:24:38.520Z,1.00
2019-02-24T10:26:40.192Z,1.00
2019-02-24T10:28:41.844Z,1.00
2019-02-24T10:30:43.532Z,1.00
2019-02-24T10:32:45.180Z,1.00
2019-02-24T10:34:47.137Z,1.00
2019-02-24T10:36:48.812Z,1.00
2019-02-24T10:38:50.965Z,1.00
2019-02-24T10:40:52.613Z,1.00
2019-02-24T10:42:54.272Z,1.00
2019-02-24T10:44:55.913Z,1.00
2019-02-24T10:46:57.568Z,1.00
2019-02-24T10:49:03.327Z,1.00
2019-02-24T10:51:02.776Z,1.00
2019-02-24T10:53:04.877Z,1.00
2019-02-24T10:55:06.520Z,1.00
2019-02-24T10:57:12.704Z,1.00
2019-02-24T10:59:12.001Z,1.00
2019-02-24T11:01:13.650Z,1.00
2019-02-24T11:03:15.297Z,1.00
2019-02-24T11:05:16.964Z,1.00
2019-02-24T11:07:18.599Z,1.00
2019-02-24T11:09:20.245Z,1.00
2019-02-24T11:11:21.888Z,1.00
2019-02-24T11:13:23.567Z,1.00
2019-02-24T11:15:25.212Z,1.00
2019-02-24T11:17:26.872Z,1.00
2019-02-24T11:19:28.809Z,1.00
2019-02-24T11:21:30.472Z,1.00
2019-02-24T11:23:32.116Z,1.00
2019-02-24T11:25:33.788Z,1.00
2019-02-24T11:27:35.446Z,1.00
2019-02-24T11:29:37.100Z,1.00
2019-02-24T11:31:38.754Z,1.00
2019-02-24T11:33:40.392Z,1.00
2019-02-24T11:35:42.031Z,1.00
2019-02-24T11:37:43.681Z,1.00
2019-02-24T11:39:45.635Z,1.00
2019-02-24T11:41:47.303Z,1.00
2019-02-24T11:43:48.971Z,1.00
2019-02-24T11:45:50.630Z,1.00
2019-02-24T11:47:52.288Z,1.00
2019-02-24T11:49:53.929Z,1.00
2019-02-24T11:52:03.705Z,1.00
2019-02-24T11:53:59.134Z,1.00
2019-02-24T11:56:01.100Z,1.00
2019-02-24T11:58:03.068Z,1.00
2019-02-24T12:00:04.735Z,1.00
2019-02-24T12:02:06.383Z,1.00
2019-02-24T12:04:08.027Z,1.00
2019-02-24T12:06:09.680Z,1.00
2019-02-24T12:08:11.874Z,1.00
2019-02-24T12:10:13.515Z,1.00
2019-02-24T12:12:15.441Z,1.00
2019-02-24T12:14:17.100Z,1.00
2019-02-24T12:16:18.744Z,1.00
2019-02-24T12:18:20.396Z,1.00
2019-02-24T12:20:22.128Z,1.00
2019-02-24T12:22:23.776Z,1.00
2019-02-24T12:24:25.428Z,1.00
2019-02-24T12:26:27.069Z,1.00
2019-02-24T12:28:28.796Z,1.00
2019-02-24T12:30:30.433Z,1.00
2019-02-24T12:32:32.075Z,1.00
2019-02-24T12:34:33.724Z,1.00
2019-02-24T12:36:35.363Z,1.00
2019-02-24T12:38:37.041Z,1.00
2019-02-24T12:40:38.684Z,1.00
2019-02-24T12:42:40.333Z,1.00
2019-02-24T12:44:41.981Z,1.00
2019-02-24T12:46:43.876Z,1.00
2019-02-24T12:48:45.537Z,1.00
2019-02-24T12:50:47.491Z,1.00
2019-02-24T12:52:49.165Z,1.00
2019-02-24T12:54:51.204Z,1.00
2019-02-24T12:56:52.868Z,1.00
2019-02-24T12:58:54.765Z,1.00
2019-02-24T13:00:56.423Z,1.00
2019-02-24T13:02:58.065Z,1.00
2019-02-24T13:04:59.718Z,1.00
2019-02-24T13:07:01.369Z,1.00
2019-02-24T13:09:04.577Z,1.00
2019-02-24T13:11:06.240Z,1.00
2019-02-24T13:13:07.904Z,1.00
2019-02-24T13:15:09.581Z,1.00
2019-02-24T13:17:11.233Z,1.00
2019-02-24T13:19:13.388Z,1.00
2019-02-24T13:21:15.038Z,1.00
2019-02-24T13:23:16.696Z,1.00
2019-02-24T13:25:18.345Z,1.00
2019-02-24T13:27:20.000Z,1.00
2019-02-24T13:29:21.665Z,1.00
2019-02-24T13:31:23.301Z,1.00
2019-02-24T13:33:24.961Z,1.00
2019-02-24T13:35:26.616Z,1.00
2019-02-24T13:37:28.260Z,1.00
2019-02-24T13:39:29.936Z,1.00
2019-02-24T13:41:31.581Z,1.00
2019-02-24T13:43:33.264Z,1.00
2019-02-24T13:45:34.920Z,1.00
2019-02-24T13:47:36.565Z,1.00
2019-02-24T13:49:38.222Z,1.00
2019-02-24T13:51:39.860Z,1.00
2019-02-24T13:53:41.509Z,1.00
2019-02-24T13:55:43.192Z,1.00
2019-02-24T13:57:44.828Z,1.00
2019-02-24T13:59:46.476Z,1.00
2019-02-24T14:01:48.123Z,1.00
2019-02-24T14:03:50.018Z,1.00
2019-02-24T14:05:51.697Z,1.00
2019-02-24T14:07:53.323Z,1.00
2019-02-24T14:09:54.989Z,1.00
2019-02-24T14:11:56.636Z,1.00
2019-02-24T14:13:58.296Z,1.00
2019-02-24T14:15:59.945Z,1.00
2019-02-24T14:18:01.607Z,1.00
2019-02-24T14:20:03.848Z,1.00
2019-02-24T14:22:05.561Z,1.00
2019-02-24T14:24:07.201Z,1.00
2019-02-24T14:26:08.849Z,1.00
2019-02-24T14:28:10.528Z,1.00
2019-02-24T14:30:12.426Z,1.00
2019-02-24T14:32:14.331Z,1.00
2019-02-24T14:34:15.996Z,1.00
2019-02-24T14:36:17.880Z,1.00
2019-02-24T14:38:19.545Z,1.00
2019-02-24T14:40:21.545Z,1.00
2019-02-24T14:42:23.503Z,1.00
2019-02-24T14:44:25.129Z,1.00
2019-02-24T14:46:26.780Z,1.00
2019-02-24T14:48:28.429Z,1.00
2019-02-24T14:50:30.130Z,1.00
2019-02-24T14:52:31.849Z,1.00
2019-02-24T14:54:33.495Z,1.00
2019-02-24T14:56:35.175Z,1.00
2019-02-24T14:58:36.817Z,1.00
2019-02-24T15:00:38.473Z,1.00
2019-02-24T15:02:42.373Z,1.00
2019-02-24T15:04:43.674Z,1.00
2019-02-24T15:06:45.885Z,1.00
2019-02-24T15:08:47.769Z,1.00
2019-02-24T15:10:49.509Z,1.00
2019-02-24T15:12:51.176Z,1.00
2019-02-24T15:14:52.809Z,1.00
2019-02-24T15:16:54.460Z,1.00
2019-02-24T15:18:56.096Z,1.00
2019-02-24T15:20:57.776Z,1.00
2019-02-24T15:22:59.420Z,1.00
2019-02-24T15:25:01.302Z,1.00
2019-02-24T15:27:03.240Z,1.00
2019-02-24T15:29:04.981Z,1.00
2019-02-24T15:31:06.631Z,1.00
2019-02-24T15:33:08.302Z,1.00
2019-02-24T15:35:09.941Z,1.00
2019-02-24T15:37:11.592Z,1.00
2019-02-24T15:39:13.228Z,1.00
2019-02-24T15:41:15.188Z,1.00
2019-02-24T15:43:16.857Z,1.00
2019-02-24T15:45:18.500Z,1.00
2019-02-24T15:47:20.465Z,1.00
2019-02-24T15:49:22.140Z,1.00
2019-02-24T15:51:23.792Z,1.00
2019-02-24T15:53:25.424Z,1.00
2019-02-24T15:55:27.064Z,1.00
2019-02-24T15:57:28.727Z,1.00
2019-02-24T15:59:30.368Z,1.00
2019-02-24T16:01:32.016Z,1.00
2019-02-24T16:03:33.961Z,1.00
2019-02-24T16:05:35.612Z,1.00
2019-02-24T16:07:37.268Z,1.00
2019-02-24T16:09:38.937Z,1.00
2019-02-24T16:11:40.612Z,1.00
2019-02-24T16:13:42.272Z,1.00
2019-02-24T16:15:43.913Z,1.00
2019-02-24T16:17:45.578Z,1.00
2019-02-24T16:19:47.213Z,1.00
2019-02-24T16:21:49.653Z,1.00
2019-02-24T16:23:51.713Z,1.00
2019-02-24T16:25:53.365Z,1.00
2019-02-24T16:27:55.029Z,1.00
2019-02-24T16:29:56.956Z,1.00
2019-02-24T16:31:58.608Z,1.00
2019-02-24T16:34:00.261Z,1.00
2019-02-24T16:36:01.904Z,1.00
2019-02-24T16:38:03.756Z,1.00
2019-02-24T16:40:07.660Z,1.00
2019-02-24T16:42:09.319Z,1.00
2019-02-24T16:44:10.985Z,1.00
2019-02-24T16:46:12.632Z,1.00
2019-02-24T16:48:14.285Z,1.00
2019-02-24T16:50:15.997Z,1.00
2019-02-24T16:52:17.656Z,1.00
2019-02-24T16:54:19.569Z,1.00
2019-02-24T16:56:21.532Z,1.00
2019-02-24T16:58:23.190Z,1.00
2019-02-24T17:00:24.836Z,1.00
2019-02-24T17:02:26.502Z,1.00
2019-02-24T17:04:28.411Z,1.00
2019-02-24T17:06:30.065Z,1.00
2019-02-24T17:08:31.704Z,1.00
2019-02-24T17:10:33.620Z,1.00
2019-02-24T17:12:35.276Z,1.00
2019-02-24T17:14:36.922Z,1.00
2019-02-24T17:16:38.655Z,1.00
2019-02-24T17:18:40.585Z,1.00
2019-02-24T17:20:42.244Z,1.00
2019-02-24T17:22:43.905Z,1.00
2019-02-24T17:24:45.569Z,1.00
2019-02-24T17:26:47.219Z,1.00
2019-02-24T17:28:49.152Z,1.00
2019-02-24T17:30:50.790Z,1.00
2019-02-24T17:32:52.434Z,1.00
2019-02-24T17:34:54.080Z,1.00
2019-02-24T17:36:55.744Z,1.00
2019-02-24T17:38:57.726Z,1.00
2019-02-24T17:40:59.369Z,1.00
2019-02-24T17:43:01.044Z,1.00
2019-02-24T17:45:02.928Z,1.00
2019-02-24T17:47:04.577Z,1.00
2019-02-24T17:49:06.237Z,1.00
2019-02-24T17:51:08.385Z,1.00
2019-02-24T17:53:10.045Z,1.00
2019-02-24T17:55:11.713Z,1.00
2019-02-24T17:57:13.351Z,1.00
2019-02-24T17:59:15.045Z,1.00
2019-02-24T18:01:17.036Z,1.00
2019-02-24T18:03:18.709Z,1.00
2019-02-24T18:05:20.359Z,1.00
2019-02-24T18:07:22.000Z,1.00
2019-02-24T18:09:23.648Z,1.00
2019-02-24T18:11:25.320Z,1.00
2019-02-24T18:13:46.641Z,1.00
2019-02-24T18:15:48.861Z,1.00
2019-02-24T18:17:50.583Z,1.00
2019-02-24T18:19:52.217Z,1.00
2019-02-24T18:21:53.856Z,1.00
2019-02-24T18:23:55.757Z,1.00
2019-02-24T18:25:57.672Z,1.00
2019-02-24T18:27:59.331Z,1.00
2019-02-24T18:30:01.304Z,1.00
2019-02-24T18:32:02.952Z,1.00
2019-02-24T18:34:04.616Z,1.50
2019-02-24T18:36:06.512Z,3.10
2019-02-24T18:38:08.188Z,3.60
2019-02-24T18:40:10.353Z,4.10
2019-02-24T18:42:12.016Z,4.50
2019-02-24T18:44:13.665Z,6.00
2019-02-24T18:46:15.296Z,7.20
2019-02-24T18:48:16.961Z,6.10
2019-02-24T18:50:18.618Z,7.40
2019-02-24T18:52:20.273Z,7.20
2019-02-24T18:54:21.924Z,7.30
2019-02-24T18:56:23.585Z,8.60
2019-02-24T18:58:25.238Z,9.10
2019-02-24T19:00:26.888Z,9.00
2019-02-24T19:02:28.536Z,11.80
2019-02-24T19:04:30.196Z,12.50
2019-02-24T19:06:38.931Z,12.40
2019-02-24T19:08:35.720Z,13.80
2019-02-24T19:10:37.364Z,13.80
2019-02-24T19:12:39.016Z,13.60
2019-02-24T19:14:40.655Z,15.50
2019-02-24T19:16:42.295Z,16.50
2019-02-24T19:18:44.783Z,19.50
2019-02-24T19:20:46.520Z,20.60
2019-02-24T19:22:48.157Z,19.50
2019-02-24T19:24:49.816Z,17.50
2019-02-24T19:26:51.480Z,15.70
2019-02-24T19:28:53.137Z,14.60
2019-02-24T19:30:54.812Z,12.30
2019-02-24T19:32:56.759Z,13.60
2019-02-24T19:34:58.415Z,14.70
2019-02-24T19:37:00.177Z,15.70
2019-02-24T19:39:01.849Z,16.00
2019-02-24T19:41:03.499Z,16.20
2019-02-24T19:43:05.155Z,15.40
2019-02-24T19:45:07.452Z,14.20
2019-02-24T19:47:09.097Z,16.10
2019-02-24T19:49:11.125Z,16.10
2019-02-24T19:51:12.832Z,16.00
2019-02-24T19:53:14.503Z,14.90
2019-02-24T19:55:16.185Z,14.70
2019-02-24T19:57:17.852Z,16.40
2019-02-24T19:59:19.506Z,16.00
2019-02-24T20:01:21.706Z,14.20
2019-02-24T20:03:23.368Z,14.50
2019-02-24T20:05:25.045Z,15.80
2019-02-24T20:07:26.702Z,17.50
2019-02-24T20:09:28.369Z,18.10
2019-02-24T20:11:30.011Z,18.50
2019-02-24T20:13:31.885Z,19.50
2019-02-24T20:15:33.560Z,15.70
2019-02-24T20:17:35.472Z,13.60
2019-02-24T20:19:37.160Z,13.90
2019-02-24T20:21:39.196Z,13.90
2019-02-24T20:23:41.118Z,15.10
2019-02-24T20:25:42.784Z,15.80
2019-02-24T20:27:44.754Z,15.30
2019-02-24T20:29:46.444Z,14.90
2019-02-24T20:31:48.085Z,15.90
2019-02-24T20:33:51.428Z,17.20
2019-02-24T20:35:53.332Z,16.70
2019-02-24T20:37:54.985Z,16.30
2019-02-24T20:39:58.041Z,17.40
2019-02-24T20:42:00.172Z,19.20
2019-02-24T20:44:01.813Z,16.70
2019-02-24T20:46:03.488Z,19.60
2019-02-24T20:48:05.156Z,23.50
2019-02-24T20:50:08.093Z,24.70
2019-02-24T20:52:09.745Z,23.80
2019-02-24T20:54:11.717Z,22.70
2019-02-24T20:56:13.420Z,23.50
2019-02-24T20:58:15.381Z,24.70
2019-02-24T21:00:22.922Z,25.10
2019-02-24T21:02:24.583Z,25.30
2019-02-24T21:04:26.237Z,25.90
2019-02-24T21:06:27.927Z,24.10
2019-02-24T21:08:30.178Z,22.80
2019-02-24T21:10:31.956Z,22.00
2019-02-24T21:12:33.604Z,23.70
2019-02-24T21:14:35.556Z,25.90
2019-02-24T21:16:37.208Z,25.40
2019-02-24T21:18:39.251Z,23.60
2019-02-24T21:20:40.960Z,24.30
2019-02-24T21:22:42.617Z,23.60
2019-02-24T21:24:44.688Z,24.20
2019-02-24T21:26:46.405Z,24.20
2019-02-24T21:28:48.994Z,23.50
2019-02-24T21:30:50.829Z,22.60
2019-02-24T21:32:52.760Z,23.80
2019-02-24T21:34:54.407Z,25.00
2019-02-24T21:36:56.068Z,26.10
2019-02-24T21:38:57.736Z,26.90
2019-02-24T21:40:59.392Z,27.70
2019-02-24T21:43:01.049Z,28.60
2019-02-24T21:45:02.752Z,26.80
2019-02-24T21:47:04.421Z,28.00
2019-02-24T21:49:06.074Z,27.60
2019-02-24T21:51:07.748Z,27.30
2019-02-24T21:53:09.913Z,26.30
2019-02-24T21:55:11.595Z,26.70
2019-02-24T21:57:13.257Z,26.80
2019-02-24T21:59:14.910Z,27.50
2019-02-24T22:01:16.592Z,26.00
2019-02-24T22:03:18.240Z,28.00
2019-02-24T22:05:19.916Z,27.10
2019-02-24T22:07:21.885Z,25.70
2019-02-24T22:09:23.552Z,27.00
2019-02-24T22:11:25.210Z,28.80
2019-02-24T22:13:27.166Z,30.10
2019-02-24T22:15:28.894Z,30.10
2019-02-24T22:17:30.571Z,31.70
2019-02-24T22:19:32.215Z,30.20
2019-02-24T22:21:33.877Z,30.30
2019-02-24T22:23:35.758Z,31.00
2019-02-24T22:25:37.404Z,33.50
2019-02-24T22:27:39.088Z,36.00
2019-02-24T22:29:40.784Z,34.90
2019-02-24T22:31:42.463Z,34.50
2019-02-24T22:33:44.106Z,32.70
2019-02-24T22:35:45.754Z,32.20
2019-02-24T22:37:47.739Z,30.70
2019-02-24T22:39:49.389Z,34.20
2019-02-24T22:41:51.540Z,36.20
2019-02-24T22:43:53.194Z,36.70
2019-02-24T22:45:54.834Z,52.90
2019-02-24T22:47:56.494Z,55.90
2019-02-24T22:49:58.283Z,54.40
2019-02-24T22:51:59.961Z,56.70
2019-02-24T22:54:01.608Z,58.70
2019-02-24T22:56:03.261Z,59.10
2019-02-24T22:58:05.205Z,58.80
2019-02-24T23:00:28.177Z,57.60
2019-02-24T23:02:29.828Z,57.00
2019-02-24T23:04:31.740Z,59.50
2019-02-24T23:06:33.397Z,58.90
2019-02-24T23:08:35.060Z,57.90
2019-02-24T23:10:36.712Z,59.40
2019-02-24T23:12:38.396Z,59.20
2019-02-24T23:14:40.041Z,61.80
2019-02-24T23:16:41.683Z,62.20
2019-02-24T23:18:43.369Z,66.20
2019-02-24T23:20:45.012Z,63.60
2019-02-24T23:22:46.684Z,63.20
2019-02-24T23:24:48.334Z,63.80
2019-02-24T23:26:49.971Z,62.60
2019-02-24T23:28:51.645Z,62.20
2019-02-24T23:30:53.292Z,62.40
2019-02-24T23:32:55.209Z,64.90
2019-02-24T23:34:57.156Z,64.00
2019-02-24T23:36:59.836Z,65.30
2019-02-24T23:39:01.521Z,64.70
2019-02-24T23:41:03.185Z,63.80
2019-02-24T23:43:04.837Z,62.00
2019-02-24T23:45:10.174Z,59.40
2019-02-24T23:47:10.165Z,61.70
2019-02-24T23:49:12.096Z,63.90
2019-02-24T23:51:13.754Z,63.40
2019-02-24T23:53:15.408Z,63.70
2019-02-24T23:55:17.141Z,63.80
2019-02-24T23:57:18.840Z,63.40
2019-02-24T23:59:20.493Z,63.80
